Terminal Aerodrome Forecast
Issued by NWS

Home | Current Version | Previous Version | Text Only | Print | Product List | Glossary On
Versions: 1 2 3 4 5 6 7 8 9 10 11 12 13 14 15 16 17
000
FTUS46 KSTO 221100 RRA
TAFSAC
TAF
KSAC 221147Z 2212/2312 30005KT 6SM BR SCT005 OVC015
      TEMPO 2212/2216 3SM BR OVC012
     FM221700 33007KT P6SM SCT005 BKN015
     FM222000 32011KT P6SM SCT015
     FM230500 33005KT 6SM BR SKC
     FM230700 33004KT 2SM BR SCT250
     FM230900 33003KT 1/2SM FG BKN002=

USA.gov is the U.S. government's official web portal to all federal, state and local government web resources and services.